Time;durP1;ratioP1;P1;durP2;ratioP2;P2;SDS_P1;SDS_P2;PMS_P1;PMS_P2;Temp;Humidity;BMP_temperature;BMP_pressure;BME280_temperature;BME280_humidity;BME280_pressure;Samples;Min_cycle;Max_cycle;Signal;HPM_P1;HPM_P2
2023/08/03 00:00:35;;;;;;;5.63;1.50;;;17.10;87.50;;;;;;5054331;28;20072;-76
2023/08/03 00:03:01;;;;;;;2.55;1.23;;;17.10;87.50;;;;;;5070815;28;20036;-75
2023/08/03 00:05:27;;;;;;;3.38;1.20;;;17.10;87.50;;;;;;5054393;28;20063;-76
2023/08/03 00:07:52;;;;;;;2.30;0.90;;;17.10;87.60;;;;;;5071059;28;20049;-76
2023/08/03 00:10:20;;;;;;;1.15;0.60;;;17.10;87.60;;;;;;5054406;28;20494;-75
2023/08/03 00:12:46;;;;;;;2.28;0.90;;;17.10;87.60;;;;;;5035702;28;20047;-75
2023/08/03 00:15:14;;;;;;;3.65;1.20;;;17.20;87.60;;;;;;5034066;28;20486;-76
2023/08/03 00:17:40;;;;;;;2.55;0.93;;;17.10;87.50;;;;;;5051228;28;20121;-76
2023/08/03 00:20:07;;;;;;;2.08;0.82;;;17.20;87.60;;;;;;5034288;28;20040;-76
2023/08/03 00:22:34;;;;;;;1.70;0.70;;;17.20;87.60;;;;;;5034192;28;20050;-76
2023/08/03 00:25:00;;;;;;;2.63;0.85;;;17.20;87.50;;;;;;5034358;28;20041;-76
2023/08/03 00:27:27;;;;;;;3.05;0.85;;;17.20;87.50;;;;;;5033994;28;20123;-76
2023/08/03 00:29:53;;;;;;;3.10;1.20;;;17.20;87.50;;;;;;5037534;28;20049;-76
2023/08/03 00:32:18;;;;;;;2.85;0.70;;;17.20;87.40;;;;;;5050572;28;20071;-76
2023/08/03 00:34:44;;;;;;;2.30;0.70;;;17.20;87.40;;;;;;5050641;28;20393;-76
2023/08/03 00:37:11;;;;;;;3.03;1.10;;;17.30;87.40;;;;;;5017606;28;20084;-75
2023/08/03 00:39:38;;;;;;;4.05;0.98;;;17.30;87.30;;;;;;5017684;28;20048;-76
2023/08/03 00:42:05;;;;;;;1.63;0.80;;;17.30;87.20;;;;;;5033897;28;20045;-76
2023/08/03 00:44:31;;;;;;;2.25;1.10;;;17.40;87.20;;;;;;5017690;28;20110;-76
2023/08/03 00:46:56;;;;;;;4.63;1.65;;;17.30;86.90;;;;;;5034063;28;20045;-76
2023/08/03 00:49:27;;;;;;;5.78;1.40;;;17.30;86.80;;;;;;5001114;28;20490;-76
2023/08/03 00:51:55;;;;;;;2.58;0.90;;;17.30;86.80;;;;;;5034612;28;20040;-77
2023/08/03 00:54:20;;;;;;;3.10;0.80;;;17.30;87.00;;;;;;5033865;28;20102;-77
2023/08/03 00:56:46;;;;;;;4.30;0.80;;;17.30;87.00;;;;;;5033621;28;20041;-76
2023/08/03 00:59:12;;;;;;;3.30;0.80;;;17.30;87.10;;;;;;5033792;28;20033;-76
2023/08/03 01:01:38;;;;;;;1.65;0.80;;;17.30;87.10;;;;;;5017283;28;20131;-77
2023/08/03 01:04:04;;;;;;;1.80;0.70;;;17.30;87.00;;;;;;5033831;28;20040;-77
2023/08/03 01:06:30;;;;;;;2.80;0.70;;;17.30;87.10;;;;;;5033726;28;20047;-76
2023/08/03 01:08:57;;;;;;;2.83;0.82;;;17.30;87.00;;;;;;5033627;28;20067;-76
2023/08/03 01:11:24;;;;;;;2.00;0.80;;;17.40;87.10;;;;;;5017708;28;20041;-76
2023/08/03 01:13:50;;;;;;;2.55;1.00;;;17.40;87.10;;;;;;5049940;28;20048;-76
2023/08/03 01:16:16;;;;;;;3.42;1.02;;;17.50;87.10;;;;;;5033870;28;20066;-77
2023/08/03 01:18:42;;;;;;;2.28;0.80;;;17.40;87.00;;;;;;5050233;28;20106;-77
2023/08/03 01:21:09;;;;;;;2.50;0.93;;;17.40;87.00;;;;;;5050244;28;20037;-77
2023/08/03 01:23:36;;;;;;;1.70;0.70;;;17.40;87.00;;;;;;5033687;28;20037;-76
2023/08/03 01:26:01;;;;;;;1.85;0.70;;;17.30;86.90;;;;;;5017317;28;20037;-76
2023/08/03 01:28:27;;;;;;;1.60;0.60;;;17.40;86.90;;;;;;5033853;28;20045;-77
2023/08/03 01:30:53;;;;;;;0.70;0.60;;;17.40;86.90;;;;;;5033483;28;20066;-77
2023/08/03 01:33:18;;;;;;;2.60;0.65;;;17.40;86.80;;;;;;5001105;28;20046;-77
2023/08/03 01:35:44;;;;;;;1.50;0.90;;;17.40;86.80;;;;;;5033603;28;20531;-76
2023/08/03 01:38:13;;;;;;;1.00;0.75;;;17.40;86.80;;;;;;5050093;28;20373;-77
2023/08/03 01:40:41;;;;;;;1.52;0.70;;;17.40;86.80;;;;;;5034701;28;20128;-78
2023/08/03 01:43:06;;;;;;;0.80;0.60;;;17.40;86.90;;;;;;5037444;28;20041;-76
2023/08/03 01:45:32;;;;;;;1.80;1.00;;;17.40;86.70;;;;;;5037673;28;20495;-77
2023/08/03 01:47:58;;;;;;;1.42;0.95;;;17.50;86.70;;;;;;5053794;28;20036;-77
2023/08/03 01:50:23;;;;;;;1.23;0.70;;;17.50;86.70;;;;;;5004316;28;20099;-80
2023/08/03 01:52:49;;;;;;;2.90;0.80;;;17.50;86.70;;;;;;5038200;28;20105;-80
2023/08/03 01:55:15;;;;;;;2.92;1.00;;;17.50;86.70;;;;;;5053746;28;20356;-80
2023/08/03 01:57:40;;;;;;;1.63;0.70;;;17.50;86.60;;;;;;5053787;28;20044;-80
2023/08/03 02:00:08;;;;;;;2.85;0.93;;;17.50;86.70;;;;;;5020489;28;20123;-80
2023/08/03 02:02:33;;;;;;;3.22;1.00;;;17.50;86.60;;;;;;5038310;28;20134;-80
2023/08/03 02:04:59;;;;;;;7.22;1.70;;;17.50;86.60;;;;;;5036929;28;20132;-80
2023/08/03 02:07:46;;;;;;;2.08;1.15;;;17.50;86.60;;;;;;5020070;28;20041;-76
2023/08/03 02:10:13;;;;;;;1.95;1.30;;;17.50;86.50;;;;;;5053387;28;20041;-76
2023/08/03 02:12:39;;;;;;;1.70;0.90;;;17.50;86.60;;;;;;5020485;28;20085;-77
2023/08/03 02:15:06;;;;;;;4.03;1.67;;;17.50;86.60;;;;;;5020216;28;20131;-77
2023/08/03 02:17:32;;;;;;;2.25;1.23;;;17.50;86.60;;;;;;5036671;28;20037;-76
2023/08/03 02:19:58;;;;;;;6.35;2.10;;;17.50;86.50;;;;;;5036532;28;20496;-76
2023/08/03 02:22:24;;;;;;;3.42;1.80;;;17.50;86.50;;;;;;5054434;28;20045;-76
2023/08/03 02:24:50;;;;;;;3.67;1.85;;;17.60;86.50;;;;;;5020093;28;20051;-76
2023/08/03 02:27:15;;;;;;;2.63;1.55;;;17.60;86.50;;;;;;5053079;28;20052;-77
2023/08/03 02:29:41;;;;;;;3.63;1.73;;;17.60;86.40;;;;;;5019918;28;20049;-79
2023/08/03 02:32:07;;;;;;;2.55;1.70;;;17.60;86.40;;;;;;5036949;28;20076;-80
2023/08/03 02:34:33;;;;;;;2.72;1.83;;;17.60;86.40;;;;;;5038325;28;20403;-79
2023/08/03 02:36:59;;;;;;;4.43;2.05;;;17.60;86.30;;;;;;5054707;28;20049;-80
2023/08/03 02:39:24;;;;;;;3.97;2.20;;;17.60;86.20;;;;;;5054171;28;20055;-79
2023/08/03 02:41:52;;;;;;;4.25;1.83;;;17.60;86.20;;;;;;5020726;28;20150;-79
2023/08/03 02:44:18;;;;;;;3.42;1.52;;;17.60;86.20;;;;;;5054060;28;20402;-79
2023/08/03 02:46:44;;;;;;;4.93;1.92;;;17.60;86.20;;;;;;5039766;28;20502;-80
2023/08/03 02:49:10;;;;;;;3.22;2.10;;;17.60;86.20;;;;;;5060658;28;20100;-80
2023/08/03 02:51:35;;;;;;;3.03;1.80;;;17.60;86.10;;;;;;5044155;28;20047;-79
2023/08/03 02:54:01;;;;;;;5.00;2.13;;;17.70;86.20;;;;;;5043806;28;20123;-79
2023/08/03 02:56:27;;;;;;;3.85;2.15;;;17.70;86.20;;;;;;5060550;28;20376;-80
2023/08/03 02:58:54;;;;;;;5.72;2.03;;;17.70;86.00;;;;;;5045391;28;20037;-79
2023/08/03 03:01:19;;;;;;;5.00;2.20;;;17.70;86.00;;;;;;5010282;28;20155;-79
2023/08/03 03:03:45;;;;;;;5.63;2.13;;;17.70;86.00;;;;;;5057004;28;20048;-80
2023/08/03 03:06:11;;;;;;;5.57;2.15;;;17.70;86.00;;;;;;5037139;28;20033;-79
2023/08/03 03:08:36;;;;;;;5.65;2.20;;;17.80;86.00;;;;;;5037253;28;20044;-79
2023/08/03 03:11:02;;;;;;;4.22;1.80;;;17.70;85.90;;;;;;5036120;28;20412;-77
2023/08/03 03:13:28;;;;;;;6.60;2.22;;;17.70;85.80;;;;;;5019346;28;20051;-79
2023/08/03 03:15:53;;;;;;;6.50;2.20;;;17.70;85.70;;;;;;5052481;28;20149;-80
2023/08/03 03:18:19;;;;;;;7.53;2.67;;;17.80;85.60;;;;;;5052427;28;20168;-79
2023/08/03 03:20:45;;;;;;;7.45;1.90;;;17.80;85.60;;;;;;5052235;28;20033;-80
2023/08/03 03:23:10;;;;;;;6.55;2.65;;;17.80;85.70;;;;;;5019758;28;20144;-80
2023/08/03 03:25:36;;;;;;;8.73;2.45;;;17.80;85.70;;;;;;5035277;28;20400;-80
2023/08/03 03:28:04;;;;;;;7.05;2.22;;;17.80;85.60;;;;;;5052227;28;20147;-79
2023/08/03 03:30:33;;;;;;;6.82;2.33;;;17.80;85.60;;;;;;5051880;28;20093;-79
2023/08/03 03:32:59;;;;;;;8.23;2.45;;;17.80;85.50;;;;;;5035975;28;20097;-80
2023/08/03 03:35:25;;;;;;;8.27;2.53;;;17.80;85.40;;;;;;5035651;28;20426;-80
2023/08/03 03:37:51;;;;;;;6.65;1.80;;;17.80;85.40;;;;;;5052013;28;20507;-80
2023/08/03 03:40:16;;;;;;;9.38;1.90;;;17.80;85.50;;;;;;5018778;28;20064;-79
2023/08/03 03:42:42;;;;;;;4.50;1.67;;;17.80;85.40;;;;;;5051925;28;20075;-80
2023/08/03 03:45:08;;;;;;;7.47;2.70;;;17.80;85.40;;;;;;5018820;28;20107;-80
2023/08/03 03:47:34;;;;;;;8.07;2.35;;;17.70;85.20;;;;;;5035206;28;20048;-79
2023/08/03 03:50:00;;;;;;;8.00;2.25;;;17.80;85.10;;;;;;5034787;28;20175;-80
2023/08/03 03:52:26;;;;;;;9.00;2.20;;;17.80;85.00;;;;;;5034822;28;20052;-79
2023/08/03 03:54:51;;;;;;;5.30;2.38;;;17.80;84.90;;;;;;5038308;28;20040;-80
2023/08/03 03:57:17;;;;;;;9.32;2.70;;;17.80;85.00;;;;;;5034352;28;20516;-80
2023/08/03 03:59:43;;;;;;;10.63;2.45;;;17.70;84.90;;;;;;5051509;28;20033;-80
2023/08/03 04:02:08;;;;;;;6.75;2.25;;;17.80;84.90;;;;;;5018093;28;20124;-77
2023/08/03 04:04:34;;;;;;;12.75;2.63;;;17.70;84.80;;;;;;5034018;28;20072;-76
2023/08/03 04:07:00;;;;;;;8.65;1.90;;;17.70;84.70;;;;;;5034559;28;20127;-77
2023/08/03 04:09:26;;;;;;;6.90;1.88;;;17.70;84.80;;;;;;5050853;28;20066;-77
2023/08/03 04:11:51;;;;;;;5.78;1.73;;;17.70;84.80;;;;;;5018090;28;20037;-77
2023/08/03 04:14:17;;;;;;;7.18;2.35;;;17.70;84.70;;;;;;5034160;28;20037;-76
2023/08/03 04:16:43;;;;;;;6.95;2.10;;;17.70;84.60;;;;;;5035031;28;20044;-79
2023/08/03 04:19:08;;;;;;;10.43;1.83;;;17.70;84.60;;;;;;5018179;28;20098;-80
2023/08/03 04:21:34;;;;;;;5.60;1.95;;;17.70;85.00;;;;;;5034869;28;20055;-81
2023/08/03 04:24:00;;;;;;;9.20;2.15;;;17.70;84.60;;;;;;5017722;28;20063;-80
2023/08/03 04:26:25;;;;;;;6.75;1.60;;;17.70;84.70;;;;;;5071413;28;20090;-80
2023/08/03 04:28:51;;;;;;;7.20;1.73;;;17.70;84.70;;;;;;5037913;28;20070;-80
2023/08/03 04:31:17;;;;;;;8.57;1.77;;;17.60;84.60;;;;;;5054728;28;20134;-79
2023/08/03 04:33:43;;;;;;;6.38;2.05;;;17.70;84.60;;;;;;5054253;28;20043;-80
2023/08/03 04:36:08;;;;;;;8.40;2.35;;;17.60;84.50;;;;;;5021453;28;20052;-79
2023/08/03 04:38:34;;;;;;;5.85;2.03;;;17.60;84.90;;;;;;5054187;28;20480;-79
2023/08/03 04:41:01;;;;;;;5.28;1.67;;;17.70;84.60;;;;;;5054165;28;20049;-80
2023/08/03 04:43:29;;;;;;;8.02;1.77;;;17.60;84.50;;;;;;5054422;28;20072;-80
2023/08/03 04:45:55;;;;;;;5.47;1.30;;;17.60;84.40;;;;;;5054433;28;20341;-79
2023/08/03 04:48:21;;;;;;;6.07;1.40;;;17.60;84.50;;;;;;5054464;28;20037;-80
2023/08/03 04:50:47;;;;;;;4.72;1.55;;;17.60;84.50;;;;;;5054399;28;20040;-79
2023/08/03 04:53:12;;;;;;;6.63;1.63;;;17.60;84.50;;;;;;5021493;28;20411;-80
2023/08/03 04:55:38;;;;;;;7.35;1.80;;;17.60;84.60;;;;;;5020995;28;20090;-80
2023/08/03 04:58:04;;;;;;;7.05;1.98;;;17.60;84.70;;;;;;5054255;28;20044;-80
2023/08/03 05:00:29;;;;;;;6.78;2.25;;;17.70;84.80;;;;;;5037403;28;20463;-80
2023/08/03 05:02:55;;;;;;;6.90;1.50;;;17.60;84.80;;;;;;5037630;28;20044;-80
2023/08/03 05:05:21;;;;;;;7.32;2.50;;;17.60;84.80;;;;;;5070744;28;20459;-80
2023/08/03 05:07:46;;;;;;;7.57;2.05;;;17.60;84.90;;;;;;5053804;28;20138;-80
2023/08/03 05:10:12;;;;;;;6.53;1.45;;;17.70;85.10;;;;;;5054226;28;20044;-79
2023/08/03 05:12:41;;;;;;;6.82;1.75;;;17.70;85.10;;;;;;5054372;28;20487;-80
2023/08/03 05:15:09;;;;;;;6.80;1.40;;;17.60;85.20;;;;;;5056011;28;20137;-79
2023/08/03 05:17:35;;;;;;;8.15;2.13;;;17.70;85.40;;;;;;5047638;28;20607;-79
2023/08/03 05:20:01;;;;;;;5.35;1.90;;;17.70;85.40;;;;;;5037965;28;20041;-77
2023/08/03 05:22:26;;;;;;;10.48;2.47;;;17.70;85.40;;;;;;5037738;28;20423;-77
2023/08/03 05:24:52;;;;;;;6.45;1.98;;;17.70;85.90;;;;;;5054140;28;20503;-77
2023/08/03 05:27:18;;;;;;;5.22;1.40;;;17.70;85.50;;;;;;5054061;28;20087;-77
2023/08/03 05:29:44;;;;;;;5.40;1.73;;;17.80;85.60;;;;;;5004598;28;20063;-77
2023/08/03 05:32:10;;;;;;;7.25;1.80;;;17.80;85.60;;;;;;5054089;28;20036;-77
2023/08/03 05:34:36;;;;;;;4.38;1.67;;;17.80;85.70;;;;;;5037208;28;20052;-77
2023/08/03 05:37:02;;;;;;;7.55;1.80;;;17.80;85.90;;;;;;5054149;28;20059;-77
2023/08/03 05:39:28;;;;;;;5.65;2.30;;;17.90;86.00;;;;;;5036977;28;20052;-77
2023/08/03 05:41:54;;;;;;;6.82;2.33;;;17.90;86.10;;;;;;5020634;28;20047;-77
2023/08/03 05:44:20;;;;;;;8.40;2.22;;;17.90;86.30;;;;;;5020459;28;20037;-78
2023/08/03 05:46:45;;;;;;;6.53;1.70;;;18.00;86.60;;;;;;5053684;28;20086;-78
2023/08/03 05:49:12;;;;;;;8.52;2.63;;;18.00;86.50;;;;;;5053479;28;20045;-78
2023/08/03 05:51:41;;;;;;;5.22;1.83;;;18.00;86.50;;;;;;5036747;28;20079;-78
2023/08/03 05:54:12;;;;;;;4.82;1.70;;;18.10;86.50;;;;;;5053773;28;20464;-80
2023/08/03 05:56:38;;;;;;;5.35;2.10;;;18.20;86.50;;;;;;5053470;28;20051;-80
2023/08/03 05:59:04;;;;;;;4.82;1.95;;;18.20;86.50;;;;;;5020502;28;20044;-80
2023/08/03 06:01:30;;;;;;;6.18;1.90;;;18.30;86.70;;;;;;5053667;28;20529;-79
2023/08/03 06:03:55;;;;;;;5.20;2.25;;;18.30;86.70;;;;;;5020271;28;20511;-80
2023/08/03 06:06:22;;;;;;;8.05;2.15;;;18.40;86.60;;;;;;5053576;28;20040;-80
2023/08/03 06:08:53;;;;;;;7.85;2.63;;;18.50;86.40;;;;;;5053499;28;20692;-80
2023/08/03 06:11:20;;;;;;;5.30;2.20;;;18.50;86.40;;;;;;5025643;28;20395;-80
2023/08/03 06:13:47;;;;;;;6.45;2.20;;;18.60;86.40;;;;;;5073379;28;20132;-80
2023/08/03 06:16:15;;;;;;;5.60;2.50;;;18.60;86.30;;;;;;5073046;28;20041;-80
2023/08/03 06:18:48;;;;;;;5.60;1.80;;;18.70;86.70;;;;;;5056737;28;20044;-78
2023/08/03 06:21:16;;;;;;;6.53;2.10;;;18.80;87.40;;;;;;5073482;28;20118;-77
2023/08/03 06:23:51;;;;;;;7.05;2.00;;;19.10;88.00;;;;;;5073305;28;20043;-78
2023/08/03 06:26:18;;;;;;;7.80;1.90;;;19.40;87.50;;;;;;5055924;28;20416;-78
2023/08/03 06:28:45;;;;;;;7.18;2.15;;;19.60;86.60;;;;;;5068501;28;20483;-79
2023/08/03 06:31:19;;;;;;;6.28;1.92;;;19.80;85.90;;;;;;5039328;28;20491;-78
2023/08/03 06:33:47;;;;;;;4.57;1.30;;;20.10;85.10;;;;;;5056730;28;20052;-79
2023/08/03 06:36:20;;;;;;;4.70;1.50;;;20.30;84.20;;;;;;5072998;28;20517;-78
2023/08/03 06:38:47;;;;;;;5.45;1.30;;;20.10;83.20;;;;;;5056069;28;20048;-78
2023/08/03 06:41:13;;;;;;;5.32;1.38;;;20.60;83.00;;;;;;5056171;28;20041;-78
2023/08/03 06:43:39;;;;;;;5.30;1.50;;;20.70;82.30;;;;;;5072448;28;20451;-78
2023/08/03 06:46:05;;;;;;;5.63;1.40;;;20.80;81.40;;;;;;5039097;28;20123;-78
2023/08/03 06:48:35;;;;;;;4.95;1.67;;;20.80;80.50;;;;;;5055667;28;20044;-78
2023/08/03 06:51:02;;;;;;;6.57;1.55;;;20.90;79.70;;;;;;5038850;28;20044;-78
2023/08/03 06:53:28;;;;;;;5.80;1.40;;;20.90;79.30;;;;;;5072924;28;20118;-78
2023/08/03 06:55:54;;;;;;;7.53;1.30;;;20.80;79.00;;;;;;5038941;28;20384;-78
2023/08/03 06:58:20;;;;;;;4.35;1.13;;;20.90;78.70;;;;;;5055432;28;20032;-78
2023/08/03 07:00:46;;;;;;;7.30;1.52;;;20.80;78.30;;;;;;5039069;28;20526;-77
2023/08/03 07:03:12;;;;;;;7.45;1.33;;;20.80;78.10;;;;;;5071914;28;20036;-78
2023/08/03 07:05:39;;;;;;;5.18;1.10;;;20.80;78.70;;;;;;5055421;28;20037;-79
2023/08/03 07:08:05;;;;;;;5.80;1.20;;;20.80;79.10;;;;;;5055638;28;20063;-79
2023/08/03 07:10:31;;;;;;;5.97;1.10;;;21.00;79.60;;;;;;5055524;28;20048;-79
2023/08/03 07:12:56;;;;;;;4.50;0.93;;;21.10;79.70;;;;;;5072070;28;20040;-78
2023/08/03 07:15:22;;;;;;;6.03;1.80;;;21.40;79.20;;;;;;5072211;28;20113;-78
2023/08/03 07:17:48;;;;;;;5.28;1.20;;;21.50;78.30;;;;;;5055652;28;20487;-79
2023/08/03 07:20:14;;;;;;;3.70;1.05;;;21.80;77.40;;;;;;5072279;28;20048;-79
2023/08/03 07:22:40;;;;;;;6.40;1.17;;;22.00;76.70;;;;;;5072827;28;20129;-78
2023/08/03 07:25:06;;;;;;;4.30;1.45;;;22.30;76.60;;;;;;5072636;28;20135;-79
2023/08/03 07:27:32;;;;;;;6.07;1.10;;;22.60;75.20;;;;;;5072506;28;20036;-78
2023/08/03 07:29:58;;;;;;;3.75;1.00;;;22.90;73.20;;;;;;5056356;28;20094;-78
2023/08/03 07:32:24;;;;;;;5.70;0.80;;;23.10;72.80;;;;;;5056778;28;20041;-78
2023/08/03 07:34:50;;;;;;;3.90;0.95;;;23.30;72.00;;;;;;5056663;28;20174;-79
2023/08/03 07:37:16;;;;;;;6.15;1.35;;;23.60;71.00;;;;;;5056713;28;20052;-78
2023/08/03 07:39:42;;;;;;;3.25;0.90;;;23.80;70.40;;;;;;5063063;28;20553;-79
2023/08/03 07:42:08;;;;;;;3.15;0.90;;;24.10;69.00;;;;;;5052109;28;20353;-79
2023/08/03 07:44:33;;;;;;;4.25;0.60;;;24.30;67.90;;;;;;5035964;28;20044;-78
2023/08/03 07:46:59;;;;;;;5.88;1.15;;;24.50;66.70;;;;;;5019052;28;20037;-78
2023/08/03 07:49:25;;;;;;;4.90;0.88;;;24.70;66.10;;;;;;5019352;28;20063;-78
2023/08/03 07:51:51;;;;;;;4.28;1.08;;;24.80;65.20;;;;;;5052336;28;20108;-78
2023/08/03 07:54:17;;;;;;;2.92;0.70;;;25.00;64.00;;;;;;5035443;28;20084;-78
2023/08/03 07:56:42;;;;;;;3.65;1.02;;;25.10;63.40;;;;;;5052139;28;20142;-78
2023/08/03 07:59:10;;;;;;;4.05;0.77;;;25.10;63.10;;;;;;5049512;28;20040;-78
2023/08/03 08:01:36;;;;;;;2.30;0.60;;;25.10;62.90;;;;;;5072578;28;20044;-78
2023/08/03 08:04:02;;;;;;;2.88;1.10;;;25.10;61.80;;;;;;5054427;28;20077;-78
2023/08/03 08:06:28;;;;;;;4.28;0.93;;;25.10;62.10;;;;;;5039704;28;20102;-78
2023/08/03 08:08:54;;;;;;;2.33;0.60;;;25.10;62.30;;;;;;5055458;28;20044;-78
2023/08/03 08:11:21;;;;;;;2.40;0.60;;;25.10;62.80;;;;;;5038697;28;20045;-78
2023/08/03 08:13:47;;;;;;;2.10;0.65;;;25.10;62.00;;;;;;5054944;28;20040;-78
2023/08/03 08:16:14;;;;;;;2.83;0.98;;;25.10;60.70;;;;;;5054636;28;20059;-78
2023/08/03 08:18:40;;;;;;;5.20;1.25;;;25.10;60.70;;;;;;5071453;28;20098;-79
2023/08/03 08:21:11;;;;;;;2.42;0.80;;;25.10;61.60;;;;;;5054461;28;20070;-79
2023/08/03 08:23:37;;;;;;;4.68;1.23;;;25.10;62.30;;;;;;5034785;28;20037;-78
2023/08/03 08:26:10;;;;;;;2.63;0.80;;;25.10;62.70;;;;;;5034612;28;20064;-78
2023/08/03 08:28:35;;;;;;;2.35;0.65;;;25.20;62.60;;;;;;5051042;28;20072;-79
2023/08/03 08:31:01;;;;;;;2.92;0.70;;;25.40;62.40;;;;;;5034855;28;20476;-79
2023/08/03 08:33:27;;;;;;;2.97;0.75;;;25.50;61.60;;;;;;5018259;28;20116;-78
2023/08/03 08:35:53;;;;;;;2.28;0.77;;;25.60;60.70;;;;;;5034019;28;20076;-79
2023/08/03 08:38:18;;;;;;;2.92;0.70;;;25.80;60.90;;;;;;5017926;28;20052;-79
2023/08/03 08:40:44;;;;;;;4.53;1.20;;;25.90;60.50;;;;;;5033980;28;20439;-79
2023/08/03 08:43:10;;;;;;;2.55;0.77;;;26.00;59.90;;;;;;5034452;28;20116;-77
2023/08/03 08:45:37;;;;;;;3.75;0.77;;;26.10;59.30;;;;;;5033953;28;20036;-79
2023/08/03 08:48:04;;;;;;;2.15;0.47;;;26.30;58.80;;;;;;5017584;28;20045;-77
2023/08/03 08:50:30;;;;;;;1.65;0.40;;;26.30;58.60;;;;;;5033548;28;20041;-78
2023/08/03 08:52:57;;;;;;;3.30;0.70;;;26.40;58.20;;;;;;5034219;28;20037;-78
2023/08/03 08:55:25;;;;;;;3.50;0.70;;;26.60;58.10;;;;;;5050475;28;20059;-78
2023/08/03 08:57:51;;;;;;;1.90;0.63;;;26.70;57.50;;;;;;5050146;28;20131;-77
2023/08/03 09:00:18;;;;;;;2.45;0.52;;;26.80;57.20;;;;;;5017260;28;20041;-78
2023/08/03 09:02:44;;;;;;;2.38;0.52;;;26.80;56.70;;;;;;5050465;28;20515;-79
2023/08/03 09:05:19;;;;;;;3.08;0.80;;;26.80;56.20;;;;;;5017146;28;20044;-78
2023/08/03 09:07:45;;;;;;;2.45;0.70;;;26.80;56.30;;;;;;5050987;28;20067;-79
2023/08/03 09:10:12;;;;;;;4.32;0.93;;;26.70;56.80;;;;;;5033972;28;20488;-79
2023/08/03 09:12:41;;;;;;;2.70;0.80;;;26.70;57.20;;;;;;5034235;28;20388;-79
2023/08/03 09:15:07;;;;;;;2.60;0.60;;;26.70;56.60;;;;;;5053718;28;20115;-78
2023/08/03 09:17:34;;;;;;;2.33;0.85;;;26.70;56.70;;;;;;5052214;28;20092;-78
2023/08/03 09:20:00;;;;;;;3.45;1.05;;;26.80;56.40;;;;;;5050398;28;20041;-78
2023/08/03 09:22:26;;;;;;;1.85;0.50;;;26.90;56.10;;;;;;5001420;28;20041;-77
2023/08/03 09:25:11;;;;;;;3.45;0.80;;;26.90;55.90;;;;;;5017038;28;20044;-77
2023/08/03 09:27:46;;;;;;;4.15;1.00;;;27.00;56.20;;;;;;5050328;28;20048;-76
2023/08/03 09:30:12;;;;;;;2.95;1.02;;;27.10;55.90;;;;;;5049816;28;20124;-77
2023/08/03 09:32:38;;;;;;;4.43;0.80;;;27.10;55.20;;;;;;5050074;28;20124;-76
2023/08/03 09:35:19;;;;;;;2.58;0.70;;;27.10;55.00;;;;;;5033235;28;20079;-78
2023/08/03 09:37:46;;;;;;;4.10;1.00;;;27.30;55.50;;;;;;5049730;28;20077;-78
2023/08/03 09:40:12;;;;;;;4.07;0.88;;;27.30;54.90;;;;;;5049763;28;20110;-78
2023/08/03 09:42:40;;;;;;;3.85;0.95;;;27.30;53.90;;;;;;5049883;28;20099;-78
2023/08/03 09:45:08;;;;;;;2.42;1.13;;;27.40;54.30;;;;;;5049347;28;20508;-78
2023/08/03 09:47:38;;;;;;;4.40;1.20;;;27.40;54.10;;;;;;5016769;28;20049;-76
2023/08/03 09:50:04;;;;;;;4.80;1.17;;;27.40;54.30;;;;;;5033615;28;20060;-76
2023/08/03 09:52:31;;;;;;;5.15;0.98;;;27.50;53.90;;;;;;5050096;28;20048;-76
2023/08/03 09:55:12;;;;;;;3.60;1.05;;;27.60;52.90;;;;;;5033080;28;20053;-76
2023/08/03 09:57:47;;;;;;;5.13;1.20;;;27.60;53.30;;;;;;5049072;28;20179;-77
2023/08/03 10:00:15;;;;;;;4.63;1.30;;;27.70;53.10;;;;;;5049381;28;20041;-76
2023/08/03 10:03:20;;;;;;;3.03;1.10;;;27.70;52.70;;;;;;5019459;28;20392;-76
2023/08/03 10:05:51;;;;;;;2.83;1.08;;;27.70;53.90;;;;;;5019069;28;20049;-77
2023/08/03 10:08:27;;;;;;;4.22;1.10;;;27.70;53.00;;;;;;5050304;28;20192;-78
2023/08/03 10:10:59;;;;;;;7.15;1.65;;;27.70;52.70;;;;;;5063969;28;20040;-77
2023/08/03 10:13:27;;;;;;;4.55;1.35;;;27.60;52.60;;;;;;5037739;28;20480;-78
2023/08/03 10:15:54;;;;;;;4.00;1.20;;;27.60;52.70;;;;;;5053359;28;20404;-78
2023/08/03 10:18:20;;;;;;;3.83;0.90;;;27.50;52.70;;;;;;5063914;28;20142;-77
2023/08/03 10:20:47;;;;;;;4.78;1.55;;;27.50;52.80;;;;;;5014060;28;20047;-77
2023/08/03 10:23:18;;;;;;;2.33;0.73;;;27.40;52.70;;;;;;5063115;28;20040;-78
2023/08/03 10:26:00;;;;;;;5.43;1.30;;;27.40;52.60;;;;;;5036858;28;20040;-79
2023/08/03 10:28:38;;;;;;;4.85;1.02;;;27.50;52.10;;;;;;5055097;28;20041;-78
2023/08/03 10:31:18;;;;;;;4.38;1.33;;;27.50;52.80;;;;;;5052981;28;20044;-78
2023/08/03 10:33:50;;;;;;;3.00;1.33;;;27.50;52.90;;;;;;5054195;28;20041;-78
2023/08/03 10:36:31;;;;;;;3.42;0.88;;;27.50;52.90;;;;;;5037290;28;20056;-78
2023/08/03 10:38:57;;;;;;;2.42;0.98;;;27.50;52.70;;;;;;5046753;28;20075;-78
2023/08/03 10:41:25;;;;;;;3.90;0.82;;;27.50;52.40;;;;;;5053345;28;20055;-78
2023/08/03 10:44:06;;;;;;;2.50;0.90;;;27.50;51.50;;;;;;5067343;28;20033;-77
2023/08/03 10:46:39;;;;;;;2.28;0.70;;;27.30;52.60;;;;;;5053775;28;20126;-77
2023/08/03 10:49:27;;;;;;;2.20;0.60;;;27.40;52.10;;;;;;5062704;28;20098;-78
2023/08/03 10:52:16;;;;;;;2.03;0.73;;;27.40;52.50;;;;;;5070097;28;20049;-78
2023/08/03 10:54:43;;;;;;;3.25;0.90;;;27.30;53.50;;;;;;5058396;28;20400;-77
2023/08/03 10:57:18;;;;;;;3.90;1.00;;;27.30;53.50;;;;;;5059273;28;20037;-77
2023/08/03 10:59:52;;;;;;;4.75;0.98;;;27.40;53.60;;;;;;5064857;28;20137;-75
2023/08/03 11:02:20;;;;;;;2.90;0.77;;;27.40;53.20;;;;;;5068616;28;20073;-76
2023/08/03 11:04:51;;;;;;;4.22;0.82;;;27.40;53.30;;;;;;5042507;28;20471;-76
2023/08/03 11:07:21;;;;;;;3.50;0.77;;;27.50;53.50;;;;;;5066532;28;20041;-76
2023/08/03 11:09:48;;;;;;;4.00;0.90;;;27.40;53.40;;;;;;5059969;28;20033;-75
2023/08/03 11:12:16;;;;;;;3.03;0.70;;;27.50;53.20;;;;;;5037203;28;20033;-76
2023/08/03 11:14:50;;;;;;;3.40;0.68;;;27.50;53.40;;;;;;5053269;28;20128;-76
2023/08/03 11:17:19;;;;;;;2.97;0.95;;;27.50;53.50;;;;;;5036303;28;20043;-76
2023/08/03 11:19:45;;;;;;;4.38;1.00;;;27.50;53.20;;;;;;5020782;28;20045;-77
2023/08/03 11:22:12;;;;;;;3.92;1.13;;;27.40;52.80;;;;;;5052869;28;20067;-76
2023/08/03 11:24:37;;;;;;;2.47;0.82;;;27.40;53.30;;;;;;5053156;28;20087;-76
2023/08/03 11:27:07;;;;;;;3.70;1.17;;;27.30;53.60;;;;;;5052811;28;20480;-76
2023/08/03 11:29:36;;;;;;;4.43;1.13;;;27.30;53.90;;;;;;5052893;28;20041;-76
2023/08/03 11:32:04;;;;;;;3.88;1.20;;;27.30;54.60;;;;;;5053050;28;20045;-76
2023/08/03 11:34:30;;;;;;;5.10;1.55;;;27.30;54.20;;;;;;5036597;28;20369;-76
2023/08/03 11:36:56;;;;;;;3.63;1.17;;;27.30;54.00;;;;;;5052779;28;20043;-76
2023/08/03 11:39:22;;;;;;;5.78;1.27;;;27.30;54.10;;;;;;5035814;28;20060;-76
2023/08/03 11:41:50;;;;;;;5.18;1.60;;;27.30;54.40;;;;;;5054203;28;20067;-76
2023/08/03 11:44:20;;;;;;;5.60;1.42;;;27.20;54.30;;;;;;5063751;28;20033;-75
2023/08/03 11:46:49;;;;;;;3.60;1.33;;;27.20;54.20;;;;;;5045544;28;20116;-77
2023/08/03 11:49:16;;;;;;;5.57;1.60;;;27.00;54.30;;;;;;5047900;28;20460;-77
2023/08/03 11:51:41;;;;;;;6.93;1.42;;;27.00;54.90;;;;;;5063225;28;20033;-77
2023/08/03 11:54:21;;;;;;;2.95;1.02;;;27.00;55.10;;;;;;5036560;28;20114;-76
2023/08/03 11:56:47;;;;;;;5.57;1.75;;;27.00;55.10;;;;;;5063381;28;20044;-77
2023/08/03 11:59:14;;;;;;;5.15;1.25;;;26.90;55.20;;;;;;5045808;28;20404;-76
2023/08/03 12:01:48;;;;;;;4.95;1.60;;;26.80;54.80;;;;;;5061088;28;20032;-76
2023/08/03 12:04:14;;;;;;;;;;;26.80;55.10;;;;;;5053049;28;20040;-77
2023/08/03 12:06:53;;;;;;;5.00;1.40;;;26.70;55.20;;;;;;5055713;28;20012;-76
2023/08/03 12:09:26;;;;;;;4.22;1.50;;;26.60;54.80;;;;;;5072005;28;20606;-76
2023/08/03 12:12:03;;;;;;;3.30;1.40;;;26.50;54.90;;;;;;5055667;28;20036;-76
2023/08/03 12:14:29;;;;;;;3.05;0.85;;;26.40;54.80;;;;;;5055359;28;20175;-75
2023/08/03 12:16:54;;;;;;;3.35;1.02;;;26.30;54.90;;;;;;5055273;28;20083;-76
2023/08/03 12:19:20;;;;;;;3.35;0.88;;;26.20;54.60;;;;;;5055219;28;20122;-75
2023/08/03 12:21:46;;;;;;;4.55;1.17;;;26.20;54.70;;;;;;5072191;28;20040;-75
2023/08/03 12:24:12;;;;;;;3.95;0.80;;;26.10;54.70;;;;;;5055039;28;20036;-75
2023/08/03 12:26:40;;;;;;;6.43;1.02;;;26.00;54.70;;;;;;5072524;28;20066;-75
2023/08/03 12:29:06;;;;;;;3.95;0.95;;;25.90;54.90;;;;;;5070301;28;20136;-75
2023/08/03 12:31:34;;;;;;;4.45;1.05;;;25.80;55.10;;;;;;5070318;28;20127;-75
2023/08/03 12:33:59;;;;;;;7.40;1.77;;;25.70;55.10;;;;;;5055237;28;20118;-75
2023/08/03 12:36:26;;;;;;;3.78;1.10;;;25.60;55.00;;;;;;5058237;28;20480;-75
2023/08/03 12:38:52;;;;;;;3.55;1.10;;;25.50;55.10;;;;;;5051573;28;20422;-75
2023/08/03 12:41:19;;;;;;;2.97;1.10;;;25.40;55.60;;;;;;5034930;28;20048;-74
2023/08/03 12:43:49;;;;;;;2.92;1.00;;;25.30;56.10;;;;;;5051513;28;20037;-76
2023/08/03 12:46:16;;;;;;;4.10;0.95;;;25.20;56.30;;;;;;5051737;28;20041;-76
2023/08/03 12:48:42;;;;;;;5.38;1.25;;;25.10;56.30;;;;;;5034983;28;20080;-76